sensor_id;sensor_type;location;lat;lon;timestamp;pressure;altitude;pressure_sealevel;temperature;humidity
53089;BME280;38968;47.696;17.540;2023-03-31T00:00:37;10000750.0;;;13.73;64.38184
53089;BME280;38968;47.696;17.540;2023-03-31T00:05:36;10001130.0;;;13.62;64.56348
53089;BME280;38968;47.696;17.540;2023-03-31T00:10:36;10001250.0;;;13.52;64.13477
53089;BME280;38968;47.696;17.540;2023-03-31T00:15:36;10000920.0;;;13.44;64.53711
53089;BME280;38968;47.696;17.540;2023-03-31T00:20:36;10001730.0;;;13.35;64.29297
53089;BME280;38968;47.696;17.540;2023-03-31T00:25:39;10000880.0;;;13.25;64.54297
53089;BME280;38968;47.696;17.540;2023-03-31T00:30:36;10000790.0;;;13.28;64.04102
53089;BME280;38968;47.696;17.540;2023-03-31T00:35:36;10001050.0;;;13.29;64.16992
53089;BME280;38968;47.696;17.540;2023-03-31T00:40:37;9998881;;;13.2;64.00586
53089;BME280;38968;47.696;17.540;2023-03-31T00:45:36;9999256;;;13.11;63.88965
53089;BME280;38968;47.696;17.540;2023-03-31T00:50:43;9999198;;;13;64.34473
53089;BME280;38968;47.696;17.540;2023-03-31T00:55:45;9998155;;;12.97;64.7666
53089;BME280;38968;47.696;17.540;2023-03-31T01:00:36;9999523;;;12.75;65.65332
53089;BME280;38968;47.696;17.540;2023-03-31T01:10:38;9998784;;;12.55;65.7168
53089;BME280;38968;47.696;17.540;2023-03-31T01:15:37;9997897;;;12.95;64.59082
53089;BME280;38968;47.696;17.540;2023-03-31T01:25:54;9997773;;;12.4;66.57813
53089;BME280;38968;47.696;17.540;2023-03-31T01:30:54;9998072;;;12.61;65.96582
53089;BME280;38968;47.696;17.540;2023-03-31T01:41:13;9998036;;;12.4;66.13086
53089;BME280;38968;47.696;17.540;2023-03-31T01:55:38;9997386;;;12.55;66.55566
53089;BME280;38968;47.696;17.540;2023-03-31T02:00:41;9996764;;;12.23;67.59766
53089;BME280;38968;47.696;17.540;2023-03-31T02:05:37;9995750;;;12.08;68.27441
53089;BME280;38968;47.696;17.540;2023-03-31T02:10:38;9995630;;;12.23;67.98633
53089;BME280;38968;47.696;17.540;2023-03-31T02:15:38;9995621;;;12.26;67.40527
53089;BME280;38968;47.696;17.540;2023-03-31T02:20:41;9995488;;;12.1;68.16113
53089;BME280;38968;47.696;17.540;2023-03-31T02:25:38;9994726;;;11.97;68.68164
53089;BME280;38968;47.696;17.540;2023-03-31T02:35:36;9993048;;;12.06;68.86816
53089;BME280;38968;47.696;17.540;2023-03-31T02:40:37;9992645;;;12.28;67.97168
53089;BME280;38968;47.696;17.540;2023-03-31T02:45:46;9992434;;;12.07;68.50098
53089;BME280;38968;47.696;17.540;2023-03-31T02:51:08;9992358;;;12.02;68.62988
53089;BME280;38968;47.696;17.540;2023-03-31T03:00:50;9990475;;;11.86;69.67285
53089;BME280;38968;47.696;17.540;2023-03-31T03:05:43;9990748;;;11.78;69.70508
53089;BME280;38968;47.696;17.540;2023-03-31T03:11:04;9990162;;;11.69;70.2627
53089;BME280;38968;47.696;17.540;2023-03-31T03:15:40;9989961;;;11.82;70.07813
53089;BME280;38968;47.696;17.540;2023-03-31T03:20:36;9990562;;;11.85;69.75
53089;BME280;38968;47.696;17.540;2023-03-31T03:25:36;9989530;;;11.77;70.08203
53089;BME280;38968;47.696;17.540;2023-03-31T03:30:36;9989170;;;11.83;69.88477
53089;BME280;38968;47.696;17.540;2023-03-31T03:35:36;9989223;;;11.59;70.34863
53089;BME280;38968;47.696;17.540;2023-03-31T03:40:36;9988573;;;11.36;71.16016
53089;BME280;38968;47.696;17.540;2023-03-31T03:45:36;9989019;;;11.33;71.84082
53089;BME280;38968;47.696;17.540;2023-03-31T03:50:36;9989907;;;11.24;72.05469
53089;BME280;38968;47.696;17.540;2023-03-31T03:55:36;9988131;;;11.38;71.67871
53089;BME280;38968;47.696;17.540;2023-03-31T04:00:36;9987539;;;11.3;71.65527
53089;BME280;38968;47.696;17.540;2023-03-31T04:05:36;9987543;;;11.29;72.35938
53089;BME280;38968;47.696;17.540;2023-03-31T04:10:37;9987711;;;11.31;72.18066
53089;BME280;38968;47.696;17.540;2023-03-31T04:15:36;9986027;;;11.44;72.29395
53089;BME280;38968;47.696;17.540;2023-03-31T04:20:36;9985946;;;11.41;71.06543
53089;BME280;38968;47.696;17.540;2023-03-31T04:25:36;9985436;;;11.35;71.52441
53089;BME280;38968;47.696;17.540;2023-03-31T04:30:36;9984493;;;11.26;71.7959
53089;BME280;38968;47.696;17.540;2023-03-31T04:35:36;9984150;;;11.24;71.95215
53089;BME280;38968;47.696;17.540;2023-03-31T04:40:36;9983995;;;11.14;72.34766
53089;BME280;38968;47.696;17.540;2023-03-31T04:45:36;9985197;;;11.24;72.1123
53089;BME280;38968;47.696;17.540;2023-03-31T04:50:36;9985517;;;10.95;72.56836
53089;BME280;38968;47.696;17.540;2023-03-31T04:55:36;9984496;;;10.83;73.54102
53089;BME280;38968;47.696;17.540;2023-03-31T05:00:36;9984819;;;10.97;73.38184
53089;BME280;38968;47.696;17.540;2023-03-31T05:05:36;9984905;;;10.96;73.59668
53089;BME280;38968;47.696;17.540;2023-03-31T05:10:36;9983819;;;11.16;72.92188
53089;BME280;38968;47.696;17.540;2023-03-31T05:15:37;9984475;;;10.93;73.44531
53089;BME280;38968;47.696;17.540;2023-03-31T05:20:36;9983918;;;11.1;72.61621
53089;BME280;38968;47.696;17.540;2023-03-31T05:25:36;9983089;;;11.3;71.91797
53089;BME280;38968;47.696;17.540;2023-03-31T05:30:36;9982822;;;11.33;71.49902
53089;BME280;38968;47.696;17.540;2023-03-31T05:35:36;9981545;;;11.18;71.80469
53089;BME280;38968;47.696;17.540;2023-03-31T05:40:36;9981734;;;11.11;72.52637
53089;BME280;38968;47.696;17.540;2023-03-31T05:45:36;9981172;;;11.3;71.90527
53089;BME280;38968;47.696;17.540;2023-03-31T05:50:36;9979439;;;11.24;71.90625
53089;BME280;38968;47.696;17.540;2023-03-31T05:55:36;9979840;;;11;72.48535
53089;BME280;38968;47.696;17.540;2023-03-31T06:00:36;9978297;;;11.28;72.41699
53089;BME280;38968;47.696;17.540;2023-03-31T06:05:36;9978070;;;11.5;71.68555
53089;BME280;38968;47.696;17.540;2023-03-31T06:10:37;9977636;;;11.49;71.61621
53089;BME280;38968;47.696;17.540;2023-03-31T06:15:36;9977983;;;11.51;71.68848
53089;BME280;38968;47.696;17.540;2023-03-31T06:20:36;9978030;;;11.67;70.77539
53089;BME280;38968;47.696;17.540;2023-03-31T06:25:39;9977923;;;11.75;70.8125
53089;BME280;38968;47.696;17.540;2023-03-31T06:30:36;9977548;;;11.87;70.36133
53089;BME280;38968;47.696;17.540;2023-03-31T06:35:40;9977304;;;12.14;70.39258
53089;BME280;38968;47.696;17.540;2023-03-31T06:40:36;9976742;;;11.95;70.61523
53089;BME280;38968;47.696;17.540;2023-03-31T06:45:36;9976159;;;12.18;71.2002
53089;BME280;38968;47.696;17.540;2023-03-31T06:50:40;9974917;;;12.55;69.81641
53089;BME280;38968;47.696;17.540;2023-03-31T06:55:37;9974083;;;13.02;69.02734
53089;BME280;38968;47.696;17.540;2023-03-31T07:00:36;9973891;;;13.36;66.98926
53089;BME280;38968;47.696;17.540;2023-03-31T07:05:36;9974385;;;13.46;66.99121
53089;BME280;38968;47.696;17.540;2023-03-31T07:10:36;9973023;;;13.87;65.31543
53089;BME280;38968;47.696;17.540;2023-03-31T07:15:36;9973288;;;14.12;64.53223
53089;BME280;38968;47.696;17.540;2023-03-31T07:20:36;9972553;;;14.47;63.52148
53089;BME280;38968;47.696;17.540;2023-03-31T07:25:36;9970412;;;14.8;62.66699
53089;BME280;38968;47.696;17.540;2023-03-31T07:30:36;9968848;;;15.2;61.09277
53089;BME280;38968;47.696;17.540;2023-03-31T07:35:39;9967992;;;15.58;60.3916
53089;BME280;38968;47.696;17.540;2023-03-31T07:40:36;9967780;;;15.45;60.64063
53089;BME280;38968;47.696;17.540;2023-03-31T07:45:37;9967540;;;15.61;58.81934
53089;BME280;38968;47.696;17.540;2023-03-31T07:50:36;9967302;;;15.55;58.54492
53089;BME280;38968;47.696;17.540;2023-03-31T07:55:36;9966066;;;15.98;57.28906
53089;BME280;38968;47.696;17.540;2023-03-31T08:00:36;9966112;;;16.08;57.8125
53089;BME280;38968;47.696;17.540;2023-03-31T08:05:36;9964928;;;16.55;57.2832
53089;BME280;38968;47.696;17.540;2023-03-31T08:10:36;9964344;;;16.49;56.53027
53089;BME280;38968;47.696;17.540;2023-03-31T08:15:36;9963735;;;17.03;55.94824
53089;BME280;38968;47.696;17.540;2023-03-31T08:20:36;9962959;;;16.81;55.44336
53089;BME280;38968;47.696;17.540;2023-03-31T08:25:37;9962958;;;16.63;55.75586
53089;BME280;38968;47.696;17.540;2023-03-31T08:30:37;9961889;;;17.21;56.57617
53089;BME280;38968;47.696;17.540;2023-03-31T08:35:36;9961873;;;16.88;56.11426
53089;BME280;38968;47.696;17.540;2023-03-31T08:40:37;9960086;;;17.29;55.96875
53089;BME280;38968;47.696;17.540;2023-03-31T08:45:40;9958514;;;17.6;55.45996
53089;BME280;38968;47.696;17.540;2023-03-31T08:50:39;9958656;;;17.85;54.79102
53089;BME280;38968;47.696;17.540;2023-03-31T08:55:47;9958097;;;18.07;53.90723
53089;BME280;38968;47.696;17.540;2023-03-31T09:00:50;9955778;;;18.43;52.70117
53089;BME280;38968;47.696;17.540;2023-03-31T09:05:48;9954719;;;18.59;50.53223
53089;BME280;38968;47.696;17.540;2023-03-31T09:10:46;9954864;;;18.65;51.77832
53089;BME280;38968;47.696;17.540;2023-03-31T09:20:37;9955330;;;19.07;50.01172
53089;BME280;38968;47.696;17.540;2023-03-31T09:25:37;9953691;;;19.01;50.28516
53089;BME280;38968;47.696;17.540;2023-03-31T09:30:37;9953704;;;18.67;51.33691
53089;BME280;38968;47.696;17.540;2023-03-31T09:35:37;9952772;;;18.92;49.05762
53089;BME280;38968;47.696;17.540;2023-03-31T09:40:37;9951388;;;18.87;49.41504
53089;BME280;38968;47.696;17.540;2023-03-31T09:45:36;9949295;;;19.27;49.10742
53089;BME280;38968;47.696;17.540;2023-03-31T09:50:42;9948195;;;18.74;48.28906
53089;BME280;38968;47.696;17.540;2023-03-31T09:55:42;9947120;;;19.5;47.44434
53089;BME280;38968;47.696;17.540;2023-03-31T10:00:39;9946041;;;19.53;46.9541
53089;BME280;38968;47.696;17.540;2023-03-31T10:05:38;9946669;;;19.66;47.30859
53089;BME280;38968;47.696;17.540;2023-03-31T10:10:37;9945596;;;19.54;46.9668
53089;BME280;38968;47.696;17.540;2023-03-31T10:15:37;9947459;;;19.38;48.11133
53089;BME280;38968;47.696;17.540;2023-03-31T10:20:37;9946502;;;19.21;48.5625
53089;BME280;38968;47.696;17.540;2023-03-31T10:25:36;9945219;;;19.58;47.3584
53089;BME280;38968;47.696;17.540;2023-03-31T10:30:36;9943473;;;19.25;47.49902
53089;BME280;38968;47.696;17.540;2023-03-31T10:35:36;9942348;;;19.36;47.33398
53089;BME280;38968;47.696;17.540;2023-03-31T10:40:37;9939942;;;19.67;46.53418
53089;BME280;38968;47.696;17.540;2023-03-31T10:45:40;9939332;;;19.94;44.97559
53089;BME280;38968;47.696;17.540;2023-03-31T10:50:36;9937447;;;19.84;45.3418
53089;BME280;38968;47.696;17.540;2023-03-31T10:55:55;9937601;;;19.74;45.27148
53089;BME280;38968;47.696;17.540;2023-03-31T11:00:59;9936397;;;19.83;44.86914
53089;BME280;38968;47.696;17.540;2023-03-31T11:05:53;9935998;;;20.17;43.92773
53089;BME280;38968;47.696;17.540;2023-03-31T11:15:50;9933809;;;21.17;41.83203
53089;BME280;38968;47.696;17.540;2023-03-31T11:21:02;9930845;;;21.23;42.07324
53089;BME280;38968;47.696;17.540;2023-03-31T11:25:45;9930139;;;21.47;42.4502
53089;BME280;38968;47.696;17.540;2023-03-31T11:31:06;9928682;;;21.27;41.12207
53089;BME280;38968;47.696;17.540;2023-03-31T11:40:52;9929591;;;21.85;40.51367
53089;BME280;38968;47.696;17.540;2023-03-31T11:45:42;9931092;;;21.86;41.3418
53089;BME280;38968;47.696;17.540;2023-03-31T11:50:37;9931856;;;21.67;41.27637
53089;BME280;38968;47.696;17.540;2023-03-31T11:55:36;9932501;;;21.76;41.81641
53089;BME280;38968;47.696;17.540;2023-03-31T12:00:54;9933502;;;21.48;41.31836
53089;BME280;38968;47.696;17.540;2023-03-31T12:10:38;9931962;;;21.02;42.27832
53089;BME280;38968;47.696;17.540;2023-03-31T12:15:41;9929483;;;21.15;42.80859
53089;BME280;38968;47.696;17.540;2023-03-31T12:20:40;9928417;;;20.38;42.95898
53089;BME280;38968;47.696;17.540;2023-03-31T12:25:50;9924819;;;20.85;41.63672
53089;BME280;38968;47.696;17.540;2023-03-31T12:30:38;9923672;;;20.85;40.26758
53089;BME280;38968;47.696;17.540;2023-03-31T12:40:59;9921180;;;21.48;38.99023
53089;BME280;38968;47.696;17.540;2023-03-31T12:45:45;9918622;;;22.62;37.77344
53089;BME280;38968;47.696;17.540;2023-03-31T12:55:49;9914491;;;21.87;38.26758
53089;BME280;38968;47.696;17.540;2023-03-31T13:00:36;9913723;;;21.13;39.14746
53089;BME280;38968;47.696;17.540;2023-03-31T13:10:55;9909956;;;20.95;40.47754
53089;BME280;38968;47.696;17.540;2023-03-31T13:15:36;9911005;;;20.72;40.7998
53089;BME280;38968;47.696;17.540;2023-03-31T13:20:38;9909011;;;20.91;39.3877
53089;BME280;38968;47.696;17.540;2023-03-31T13:25:49;9908887;;;20.84;38.14355
53089;BME280;38968;47.696;17.540;2023-03-31T13:35:38;9906605;;;21.4;38.97168
53089;BME280;38968;47.696;17.540;2023-03-31T13:55:48;9906133;;;20.85;40.85742
53089;BME280;38968;47.696;17.540;2023-03-31T14:10:38;9902697;;;20.7;40.75098
53089;BME280;38968;47.696;17.540;2023-03-31T14:15:52;9898998;;;20.67;40.45313
53089;BME280;38968;47.696;17.540;2023-03-31T14:26:03;9897672;;;19.94;41.375
53089;BME280;38968;47.696;17.540;2023-03-31T14:40:43;9894375;;;20.09;41.16504
53089;BME280;38968;47.696;17.540;2023-03-31T14:45:36;9894239;;;20.4;40.71191
53089;BME280;38968;47.696;17.540;2023-03-31T14:50:36;9894156;;;20.27;40.80566
53089;BME280;38968;47.696;17.540;2023-03-31T14:55:36;9893072;;;20.06;41.05664
53089;BME280;38968;47.696;17.540;2023-03-31T15:00:37;9892334;;;20.22;40.68262
53089;BME280;38968;47.696;17.540;2023-03-31T15:05:37;9894523;;;20.13;41.27539
53089;BME280;38968;47.696;17.540;2023-03-31T15:10:38;9894383;;;20.2;41.39941
53089;BME280;38968;47.696;17.540;2023-03-31T15:15:36;9894954;;;19.9;42.4541
53089;BME280;38968;47.696;17.540;2023-03-31T15:20:38;9895977;;;19.71;43.30566
53089;BME280;38968;47.696;17.540;2023-03-31T15:25:38;9895477;;;19.41;43.54688
53089;BME280;38968;47.696;17.540;2023-03-31T15:30:36;9895350;;;19.34;44.0918
53089;BME280;38968;47.696;17.540;2023-03-31T15:35:36;9896080;;;19.17;44.63965
53089;BME280;38968;47.696;17.540;2023-03-31T15:40:38;9895105;;;19.18;44.72168
53089;BME280;38968;47.696;17.540;2023-03-31T15:50:37;9896012;;;18.88;45.31445
53089;BME280;38968;47.696;17.540;2023-03-31T15:55:40;9895640;;;18.91;45.37598
53089;BME280;38968;47.696;17.540;2023-03-31T16:00:44;9897108;;;19.09;44.94824
53089;BME280;38968;47.696;17.540;2023-03-31T16:05:41;9898642;;;18.23;46.6875
53089;BME280;38968;47.696;17.540;2023-03-31T16:10:36;9897525;;;18.59;45.42578
53089;BME280;38968;47.696;17.540;2023-03-31T16:15:41;9898952;;;18.71;44.78027
53089;BME280;38968;47.696;17.540;2023-03-31T16:20:44;9896056;;;18.41;46.00391
53089;BME280;38968;47.696;17.540;2023-03-31T16:25:38;9896925;;;18.43;46.21777
53089;BME280;38968;47.696;17.540;2023-03-31T16:30:38;9897509;;;18.21;47.08398
53089;BME280;38968;47.696;17.540;2023-03-31T16:35:41;9899127;;;18.02;47.90625
53089;BME280;38968;47.696;17.540;2023-03-31T16:40:38;9900120;;;17.84;49.18457
53089;BME280;38968;47.696;17.540;2023-03-31T16:45:36;9900955;;;17.34;51.25195
53089;BME280;38968;47.696;17.540;2023-03-31T16:50:36;9902985;;;17.48;51.87598
53089;BME280;38968;47.696;17.540;2023-03-31T16:55:36;9911642;;;16.82;55.43262
53089;BME280;38968;47.696;17.540;2023-03-31T17:00:36;9915166;;;15.11;60.32715
53089;BME280;38968;47.696;17.540;2023-03-31T17:05:44;9917389;;;14.29;62.94043
53089;BME280;38968;47.696;17.540;2023-03-31T17:10:38;9918721;;;13.85;65.26563
53089;BME280;38968;47.696;17.540;2023-03-31T17:15:37;9918135;;;13.99;65.07813
53089;BME280;38968;47.696;17.540;2023-03-31T17:20:36;9917730;;;13.71;67.15723
53089;BME280;38968;47.696;17.540;2023-03-31T17:25:37;9916856;;;13.71;68.54883
53089;BME280;38968;47.696;17.540;2023-03-31T17:30:37;9918384;;;13.81;68.02441
53089;BME280;38968;47.696;17.540;2023-03-31T17:35:36;9917848;;;13.84;66.58984
53089;BME280;38968;47.696;17.540;2023-03-31T17:40:37;9917834;;;13.67;68.30176
53089;BME280;38968;47.696;17.540;2023-03-31T17:45:37;9916086;;;13.86;67.30664
53089;BME280;38968;47.696;17.540;2023-03-31T17:50:37;9914134;;;14.12;66.7002
53089;BME280;38968;47.696;17.540;2023-03-31T17:55:37;9914888;;;14.2;65.86035
53089;BME280;38968;47.696;17.540;2023-03-31T18:00:37;9914570;;;14.32;65.98145
53089;BME280;38968;47.696;17.540;2023-03-31T18:05:37;9914266;;;14.02;66.08594
53089;BME280;38968;47.696;17.540;2023-03-31T18:10:37;9913438;;;14.11;65.77832
53089;BME280;38968;47.696;17.540;2023-03-31T18:15:37;9912577;;;14.08;65.32129
53089;BME280;38968;47.696;17.540;2023-03-31T18:20:36;9910080;;;13.98;65.35352
53089;BME280;38968;47.696;17.540;2023-03-31T18:25:37;9910273;;;13.74;65.99805
53089;BME280;38968;47.696;17.540;2023-03-31T18:30:37;9910609;;;13.57;67.10059
53089;BME280;38968;47.696;17.540;2023-03-31T18:35:37;9911227;;;13.56;67.31738
53089;BME280;38968;47.696;17.540;2023-03-31T18:40:37;9913368;;;13.47;67.43164
53089;BME280;38968;47.696;17.540;2023-03-31T18:45:38;9913577;;;13.17;69.6377
53089;BME280;38968;47.696;17.540;2023-03-31T18:50:37;9914333;;;13.02;70.33887
53089;BME280;38968;47.696;17.540;2023-03-31T18:55:37;9914400;;;13.07;70.10645
53089;BME280;38968;47.696;17.540;2023-03-31T19:00:37;9916658;;;12.9;71.24902
53089;BME280;38968;47.696;17.540;2023-03-31T19:05:37;9916003;;;12.78;71.98633
53089;BME280;38968;47.696;17.540;2023-03-31T19:10:37;9916841;;;12.88;71.30371
53089;BME280;38968;47.696;17.540;2023-03-31T19:15:37;9916058;;;12.86;70.89941
53089;BME280;38968;47.696;17.540;2023-03-31T19:20:37;9914245;;;12.8;70.91113
53089;BME280;38968;47.696;17.540;2023-03-31T19:25:38;9914034;;;12.9;69.98633
53089;BME280;38968;47.696;17.540;2023-03-31T19:30:37;9913502;;;12.91;70.0332
53089;BME280;38968;47.696;17.540;2023-03-31T19:35:41;9912881;;;12.94;70.08398
53089;BME280;38968;47.696;17.540;2023-03-31T19:40:37;9912666;;;13.03;69.61816
53089;BME280;38968;47.696;17.540;2023-03-31T19:45:37;9912020;;;12.9;70.48145
53089;BME280;38968;47.696;17.540;2023-03-31T19:50:37;9910988;;;13.07;69.37109
53089;BME280;38968;47.696;17.540;2023-03-31T19:55:37;9910088;;;12.93;70.66797
53089;BME280;38968;47.696;17.540;2023-03-31T20:00:37;9909633;;;13.18;69.05371
53089;BME280;38968;47.696;17.540;2023-03-31T20:05:37;9909455;;;13.19;69.19238
53089;BME280;38968;47.696;17.540;2023-03-31T20:10:37;9910405;;;13.23;69.0957
53089;BME280;38968;47.696;17.540;2023-03-31T20:15:36;9909920;;;13.12;69.46973
53089;BME280;38968;47.696;17.540;2023-03-31T20:20:37;9907958;;;13.22;68.92285
53089;BME280;38968;47.696;17.540;2023-03-31T20:25:36;9907119;;;13.34;68.08984
53089;BME280;38968;47.696;17.540;2023-03-31T20:30:37;9906272;;;13.06;68.56348
53089;BME280;38968;47.696;17.540;2023-03-31T20:35:37;9905947;;;13.21;68.15039
53089;BME280;38968;47.696;17.540;2023-03-31T20:40:36;9905070;;;13.22;68.22168
53089;BME280;38968;47.696;17.540;2023-03-31T20:45:37;9905311;;;13.27;67.96387
53089;BME280;38968;47.696;17.540;2023-03-31T20:50:36;9905070;;;13.22;67.7041
53089;BME280;38968;47.696;17.540;2023-03-31T20:55:37;9906187;;;13.05;68.02344
53089;BME280;38968;47.696;17.540;2023-03-31T21:00:37;9906308;;;12.97;69.04395
53089;BME280;38968;47.696;17.540;2023-03-31T21:05:41;9904936;;;12.9;69.06836
53089;BME280;38968;47.696;17.540;2023-03-31T21:10:40;9903740;;;13.05;68.79199
53089;BME280;38968;47.696;17.540;2023-03-31T21:15:37;9904138;;;12.93;68.77441
53089;BME280;38968;47.696;17.540;2023-03-31T21:20:36;9904071;;;12.88;69.07617
53089;BME280;38968;47.696;17.540;2023-03-31T21:25:36;9903488;;;12.6;70.29395
53089;BME280;38968;47.696;17.540;2023-03-31T21:30:36;9904700;;;12.4;70.49219
53089;BME280;38968;47.696;17.540;2023-03-31T21:35:37;9904840;;;12.49;70.83887
53089;BME280;38968;47.696;17.540;2023-03-31T21:40:36;9905259;;;12.31;71.49707
53089;BME280;38968;47.696;17.540;2023-03-31T21:45:37;9905173;;;12.3;71.78418
53089;BME280;38968;47.696;17.540;2023-03-31T21:50:37;9905834;;;12.41;71.02148
53089;BME280;38968;47.696;17.540;2023-03-31T21:55:37;9905459;;;12.24;72.3125
53089;BME280;38968;47.696;17.540;2023-03-31T22:00:36;9903528;;;12.03;72.8291
53089;BME280;38968;47.696;17.540;2023-03-31T22:05:37;9903662;;;12.37;71.87402
53089;BME280;38968;47.696;17.540;2023-03-31T22:10:36;9902730;;;12.3;71.66797
53089;BME280;38968;47.696;17.540;2023-03-31T22:15:38;9903394;;;12.39;70.87988
53089;BME280;38968;47.696;17.540;2023-03-31T22:20:36;9902555;;;12.07;71.87109
53089;BME280;38968;47.696;17.540;2023-03-31T22:25:37;9902453;;;12.11;71.29395
53089;BME280;38968;47.696;17.540;2023-03-31T22:30:36;9901791;;;12.24;70.71875
53089;BME280;38968;47.696;17.540;2023-03-31T22:35:36;9903625;;;12.24;70.77637
53089;BME280;38968;47.696;17.540;2023-03-31T22:40:36;9903489;;;11.91;72.13086
53089;BME280;38968;47.696;17.540;2023-03-31T22:45:36;9904360;;;11.91;72.07422
53089;BME280;38968;47.696;17.540;2023-03-31T22:50:36;9902170;;;11.94;72.23828
53089;BME280;38968;47.696;17.540;2023-03-31T22:55:43;9902702;;;11.42;73.60645
53089;BME280;38968;47.696;17.540;2023-03-31T23:00:36;9901759;;;12.1;71.05176
53089;BME280;38968;47.696;17.540;2023-03-31T23:05:36;9903911;;;11.95;71.61133
53089;BME280;38968;47.696;17.540;2023-03-31T23:10:36;9903017;;;12;70.8291
53089;BME280;38968;47.696;17.540;2023-03-31T23:15:36;9904323;;;11.77;71.43262
53089;BME280;38968;47.696;17.540;2023-03-31T23:20:37;9903371;;;11.99;71
53089;BME280;38968;47.696;17.540;2023-03-31T23:25:36;9902595;;;11.96;70.59277
53089;BME280;38968;47.696;17.540;2023-03-31T23:30:36;9901983;;;11.72;70.85254
53089;BME280;38968;47.696;17.540;2023-03-31T23:35:36;9901407;;;11.88;71.14063
53089;BME280;38968;47.696;17.540;2023-03-31T23:40:36;9901983;;;11.72;71.18457
53089;BME280;38968;47.696;17.540;2023-03-31T23:45:36;9902948;;;11.47;72.10449
53089;BME280;38968;47.696;17.540;2023-03-31T23:50:37;9902095;;;11.9;70.23926
53089;BME280;38968;47.696;17.540;2023-03-31T23:55:36;9901886;;;11.52;70.92285
